Time;durP1;ratioP1;P1;durP2;ratioP2;P2;SDS_P1;SDS_P2;PMS_P1;PMS_P2;Temp;Humidity;BMP_temperature;BMP_pressure;BME280_temperature;BME280_humidity;BME280_pressure;Samples;Min_cycle;Max_cycle;Signal;HPM_P1;HPM_P2
2023/12/10 00:02:16;;;;;;;20.23;3.45;;;8.00;99.90;;;;;;4981863;28;20033;-77
2023/12/10 00:04:43;;;;;;;19.27;3.97;;;7.90;99.90;;;;;;4999974;28;20077;-77
2023/12/10 00:07:09;;;;;;;20.67;3.67;;;7.90;99.90;;;;;;5028898;28;20037;-77
2023/12/10 00:09:35;;;;;;;23.42;6.13;;;7.80;99.90;;;;;;5010708;28;20037;-77
2023/12/10 00:12:01;;;;;;;29.80;7.85;;;7.80;99.90;;;;;;5019802;28;20052;-77
2023/12/10 00:14:27;;;;;;;35.53;8.88;;;7.80;99.90;;;;;;5006152;28;20034;-77
2023/12/10 00:16:53;;;;;;;28.35;6.68;;;7.80;99.90;;;;;;5002033;28;20030;-77
2023/12/10 00:19:19;;;;;;;23.13;5.10;;;7.80;99.90;;;;;;5000518;28;20045;-77
2023/12/10 00:21:46;;;;;;;29.90;7.35;;;7.80;99.90;;;;;;5018443;28;20033;-77
2023/12/10 00:24:12;;;;;;;30.52;7.60;;;7.80;99.90;;;;;;5015342;28;20128;-77
2023/12/10 00:26:37;;;;;;;22.35;4.40;;;7.80;99.90;;;;;;5024551;28;20109;-76
2023/12/10 00:29:03;;;;;;;22.83;4.78;;;7.70;99.90;;;;;;5021356;28;20038;-77
2023/12/10 00:31:32;;;;;;;22.83;5.10;;;7.80;99.90;;;;;;4992317;28;20049;-77
2023/12/10 00:33:58;;;;;;;17.45;3.58;;;7.80;99.90;;;;;;5022318;28;20039;-77
2023/12/10 00:36:24;;;;;;;36.72;7.88;;;7.70;99.90;;;;;;5006242;28;20056;-77
2023/12/10 00:38:50;;;;;;;27.58;4.60;;;7.80;99.90;;;;;;5019517;28;20045;-77
2023/12/10 00:41:15;;;;;;;30.75;7.38;;;7.90;99.90;;;;;;5000132;28;20026;-77
2023/12/10 00:43:41;;;;;;;15.38;4.30;;;7.90;99.90;;;;;;4990475;28;20106;-77
2023/12/10 00:46:08;;;;;;;18.48;4.65;;;7.90;99.90;;;;;;4989720;28;20041;-77
2023/12/10 00:48:34;;;;;;;22.63;5.18;;;7.90;99.90;;;;;;5028259;28;20046;-77
2023/12/10 00:51:00;;;;;;;27.38;5.10;;;7.90;99.90;;;;;;4986560;28;20565;-77
2023/12/10 00:53:26;;;;;;;19.10;4.15;;;7.90;99.90;;;;;;5017873;28;20064;-77
2023/12/10 00:55:52;;;;;;;33.58;8.80;;;7.80;99.90;;;;;;5001935;28;20029;-77
2023/12/10 00:58:18;;;;;;;33.55;7.88;;;7.90;99.90;;;;;;5015016;28;20041;-77
2023/12/10 01:00:44;;;;;;;17.63;4.25;;;7.90;99.90;;;;;;5015288;28;20455;-77
2023/12/10 01:03:10;;;;;;;16.95;3.90;;;7.90;99.90;;;;;;5003358;28;20061;-77
2023/12/10 01:05:35;;;;;;;26.25;5.03;;;7.90;99.90;;;;;;4996158;28;20476;-77
2023/12/10 01:08:01;;;;;;;25.73;4.15;;;7.90;99.90;;;;;;4997431;28;20038;-77
2023/12/10 01:10:27;;;;;;;22.40;4.70;;;7.90;99.90;;;;;;4969349;28;20049;-77
2023/12/10 01:12:53;;;;;;;27.58;7.28;;;7.90;99.90;;;;;;5001229;28;20030;-77
2023/12/10 01:15:29;;;;;;;22.10;4.28;;;7.90;99.90;;;;;;5012150;28;20049;-76
2023/12/10 01:18:00;;;;;;;12.45;3.15;;;7.90;99.90;;;;;;5002360;28;20121;-77
2023/12/10 01:20:28;;;;;;;23.30;6.75;;;7.90;99.90;;;;;;5031655;28;20392;-77
2023/12/10 01:22:54;;;;;;;22.48;6.18;;;7.80;99.90;;;;;;5028677;28;20701;-77
2023/12/10 01:25:19;;;;;;;20.10;4.20;;;7.80;99.90;;;;;;5013649;28;20144;-76
2023/12/10 01:27:45;;;;;;;14.85;2.90;;;7.80;99.90;;;;;;4994188;28;20129;-76
2023/12/10 01:30:11;;;;;;;22.70;6.10;;;7.70;99.90;;;;;;5012392;28;20033;-76
2023/12/10 01:32:37;;;;;;;14.55;4.18;;;7.70;99.90;;;;;;5004462;28;20045;-76
2023/12/10 01:35:04;;;;;;;10.10;3.15;;;7.60;99.90;;;;;;5027692;28;20045;-77
2023/12/10 01:37:30;;;;;;;14.40;3.25;;;7.50;99.90;;;;;;5014201;28;20072;-77
2023/12/10 01:39:55;;;;;;;14.18;4.10;;;7.50;99.90;;;;;;5031947;28;20077;-76
2023/12/10 01:42:21;;;;;;;15.88;3.38;;;7.50;99.90;;;;;;5010884;28;20049;-76
2023/12/10 01:44:47;;;;;;;13.48;3.50;;;7.40;99.90;;;;;;5024059;28;20410;-76
2023/12/10 01:47:13;;;;;;;18.05;4.30;;;7.40;99.90;;;;;;5003287;28;20038;-77
2023/12/10 01:49:39;;;;;;;26.85;5.90;;;7.40;99.90;;;;;;5017416;28;20045;-77
2023/12/10 01:52:06;;;;;;;16.10;3.13;;;7.40;99.90;;;;;;5011213;28;20084;-77
2023/12/10 01:54:31;;;;;;;14.73;3.35;;;7.40;99.90;;;;;;5005936;28;20098;-76
2023/12/10 01:56:57;;;;;;;9.90;2.75;;;7.40;99.90;;;;;;4997522;28;20042;-77
2023/12/10 01:59:23;;;;;;;13.85;3.03;;;7.40;99.90;;;;;;5007776;28;20073;-77
2023/12/10 02:01:50;;;;;;;11.18;3.85;;;7.40;99.90;;;;;;5005529;28;20596;-77
2023/12/10 02:04:16;;;;;;;20.65;4.75;;;7.40;99.90;;;;;;5030160;28;20124;-77
2023/12/10 02:06:46;;;;;;;22.85;6.85;;;7.40;99.90;;;;;;5014587;28;20132;-76
2023/12/10 02:09:15;;;;;;;12.90;3.25;;;7.30;99.90;;;;;;5002981;28;20049;-77
2023/12/10 02:11:41;;;;;;;24.92;4.15;;;7.40;99.90;;;;;;4998017;28;20078;-77
2023/12/10 02:14:07;;;;;;;12.73;3.03;;;7.40;99.90;;;;;;4988873;28;20042;-77
2023/12/10 02:16:33;;;;;;;13.77;3.25;;;7.30;99.90;;;;;;5014183;28;20038;-77
2023/12/10 02:18:59;;;;;;;15.20;4.20;;;7.30;99.90;;;;;;5022319;28;20091;-77
2023/12/10 02:21:26;;;;;;;20.40;4.32;;;7.30;99.90;;;;;;5013130;28;20041;-77
2023/12/10 02:24:04;;;;;;;18.67;4.03;;;7.30;99.90;;;;;;4982128;28;20103;-77
2023/12/10 02:26:30;;;;;;;14.85;3.00;;;7.30;99.90;;;;;;5026821;28;20135;-77
2023/12/10 02:28:56;;;;;;;17.92;3.10;;;7.30;99.90;;;;;;4998701;28;20037;-77
2023/12/10 02:31:24;;;;;;;12.98;3.22;;;7.30;99.90;;;;;;5009321;28;20614;-77
2023/12/10 02:33:50;;;;;;;16.75;3.78;;;7.30;99.90;;;;;;5014444;28;20045;-77
2023/12/10 02:36:16;;;;;;;14.32;3.70;;;7.30;99.90;;;;;;5019645;28;20041;-77
2023/12/10 02:38:43;;;;;;;16.05;2.97;;;7.30;99.90;;;;;;5013995;28;20037;-77
2023/12/10 02:41:09;;;;;;;13.85;3.63;;;7.30;99.90;;;;;;5028175;28;20069;-77
2023/12/10 02:43:35;;;;;;;16.80;4.70;;;7.30;99.90;;;;;;5012241;28;20080;-77
2023/12/10 02:46:00;;;;;;;17.35;3.92;;;7.30;99.90;;;;;;4990689;28;20046;-76
2023/12/10 02:48:26;;;;;;;15.27;3.42;;;7.30;99.90;;;;;;5009653;28;20042;-77
2023/12/10 02:50:52;;;;;;;18.73;3.55;;;7.20;99.90;;;;;;5026346;28;20107;-77
2023/12/10 02:53:18;;;;;;;14.30;3.80;;;7.30;99.90;;;;;;4996856;28;20084;-77
2023/12/10 02:55:43;;;;;;;20.27;4.15;;;7.30;99.90;;;;;;4997812;28;20491;-77
2023/12/10 02:58:09;;;;;;;22.05;4.25;;;7.30;99.90;;;;;;5009787;28;20117;-77
2023/12/10 03:00:35;;;;;;;24.45;4.30;;;7.30;99.90;;;;;;5006595;28;20033;-77
2023/12/10 03:03:01;;;;;;;26.42;4.05;;;7.30;99.90;;;;;;5028995;28;20037;-77
2023/12/10 03:05:27;;;;;;;24.92;4.78;;;7.20;99.90;;;;;;5014047;28;20046;-77
2023/12/10 03:07:53;;;;;;;18.60;4.55;;;7.20;99.90;;;;;;5027863;28;20508;-77
2023/12/10 03:10:19;;;;;;;17.27;3.95;;;7.30;99.90;;;;;;5004672;28;20038;-77
2023/12/10 03:12:45;;;;;;;19.50;4.13;;;7.30;99.90;;;;;;5009909;28;20491;-77
2023/12/10 03:15:11;;;;;;;17.98;3.75;;;7.30;99.90;;;;;;5014629;28;20034;-77
2023/12/10 03:17:36;;;;;;;17.35;4.15;;;7.30;99.90;;;;;;4993319;28;20038;-77
2023/12/10 03:20:03;;;;;;;16.90;3.63;;;7.20;99.90;;;;;;5021613;28;20874;-77
2023/12/10 03:22:29;;;;;;;18.25;3.60;;;7.20;99.90;;;;;;5024373;28;20052;-77
2023/12/10 03:24:55;;;;;;;21.38;3.45;;;7.20;99.90;;;;;;5028813;28;20522;-77
2023/12/10 03:27:22;;;;;;;16.40;3.90;;;7.20;99.90;;;;;;5027086;28;20041;-77
2023/12/10 03:29:47;;;;;;;17.30;3.83;;;7.30;99.90;;;;;;5029972;28;20122;-77
2023/12/10 03:32:14;;;;;;;19.00;4.20;;;7.20;99.90;;;;;;5015011;28;20088;-77
2023/12/10 03:34:39;;;;;;;18.10;3.53;;;7.20;99.90;;;;;;5030998;28;20029;-76
2023/12/10 03:37:05;;;;;;;18.08;4.50;;;7.20;99.90;;;;;;5013379;28;20048;-76
2023/12/10 03:39:31;;;;;;;9.30;2.67;;;7.20;99.90;;;;;;5005165;28;20033;-76
2023/12/10 03:41:56;;;;;;;14.65;3.45;;;7.20;99.90;;;;;;5016109;28;20123;-77
2023/12/10 03:44:23;;;;;;;18.95;3.67;;;7.20;99.90;;;;;;5011699;28;20099;-76
2023/12/10 03:46:48;;;;;;;14.85;3.10;;;7.20;99.90;;;;;;4997235;28;20026;-76
2023/12/10 03:49:14;;;;;;;14.38;2.67;;;7.10;99.90;;;;;;4998791;28;20068;-76
2023/12/10 03:51:40;;;;;;;12.65;3.45;;;7.20;99.90;;;;;;5014991;28;20085;-76
2023/12/10 03:54:05;;;;;;;10.70;2.45;;;7.10;99.90;;;;;;5008296;28;20042;-77
2023/12/10 03:56:31;;;;;;;22.85;3.55;;;7.10;99.90;;;;;;5011934;28;20091;-76
2023/12/10 03:58:57;;;;;;;14.70;3.08;;;7.10;99.90;;;;;;5014158;28;20091;-76
2023/12/10 04:01:22;;;;;;;14.60;2.97;;;7.10;99.90;;;;;;5015383;28;20538;-76
2023/12/10 04:03:48;;;;;;;17.42;3.00;;;7.10;99.90;;;;;;5015253;28;20054;-76
2023/12/10 04:06:14;;;;;;;9.40;2.88;;;7.10;99.90;;;;;;5015686;28;20041;-77
2023/12/10 04:08:39;;;;;;;11.35;2.90;;;7.00;99.90;;;;;;5013976;28;20120;-76
2023/12/10 04:11:05;;;;;;;17.83;3.95;;;7.00;99.90;;;;;;4998439;28;20041;-76
2023/12/10 04:13:31;;;;;;;16.52;3.20;;;7.10;99.90;;;;;;5014068;28;20046;-77
2023/12/10 04:15:59;;;;;;;12.65;2.92;;;7.10;99.90;;;;;;5012855;28;20041;-77
2023/12/10 04:18:24;;;;;;;10.93;2.90;;;7.00;99.90;;;;;;5026156;28;20495;-77
2023/12/10 04:20:50;;;;;;;11.25;2.95;;;7.10;99.90;;;;;;5014620;28;20040;-76
2023/12/10 04:23:16;;;;;;;20.27;3.22;;;7.00;99.90;;;;;;5005338;28;20038;-77
2023/12/10 04:25:41;;;;;;;7.63;2.80;;;7.00;99.90;;;;;;5023736;28;20129;-76
2023/12/10 04:28:07;;;;;;;17.30;3.85;;;7.00;99.90;;;;;;4983055;28;20116;-76
2023/12/10 04:30:33;;;;;;;15.85;2.60;;;7.00;99.90;;;;;;5013279;28;20037;-76
2023/12/10 04:32:59;;;;;;;16.70;3.45;;;7.00;99.90;;;;;;5026569;28;20076;-76
2023/12/10 04:35:24;;;;;;;16.42;3.28;;;7.00;99.90;;;;;;5014175;28;20099;-77
2023/12/10 04:37:50;;;;;;;15.82;3.13;;;7.00;99.90;;;;;;4993474;28;20116;-77
2023/12/10 04:40:16;;;;;;;21.90;3.67;;;7.00;99.90;;;;;;5009160;28;20033;-77
2023/12/10 04:42:42;;;;;;;18.50;3.50;;;7.10;99.90;;;;;;5014464;28;20095;-76
2023/12/10 04:45:08;;;;;;;16.90;3.15;;;7.00;99.90;;;;;;4997943;28;20044;-77
2023/12/10 04:47:35;;;;;;;23.48;3.53;;;7.10;99.90;;;;;;5025389;28;20062;-76
2023/12/10 04:50:02;;;;;;;11.32;2.58;;;7.10;99.90;;;;;;5014699;28;20045;-76
2023/12/10 04:52:29;;;;;;;15.27;4.47;;;7.10;99.90;;;;;;5034603;28;20415;-76
2023/12/10 04:54:57;;;;;;;12.02;3.28;;;7.10;99.90;;;;;;5000359;28;20491;-76
2023/12/10 04:57:22;;;;;;;16.88;2.67;;;7.10;99.90;;;;;;5025626;28;20038;-76
2023/12/10 04:59:48;;;;;;;10.88;3.08;;;7.10;99.90;;;;;;5014043;28;20039;-77
2023/12/10 05:02:14;;;;;;;12.70;3.67;;;7.20;99.90;;;;;;5013864;28;20038;-77
2023/12/10 05:04:39;;;;;;;20.55;3.42;;;7.20;99.90;;;;;;5030144;28;20037;-76
2023/12/10 05:07:05;;;;;;;18.70;3.25;;;7.20;99.90;;;;;;5014363;28;20052;-77
2023/12/10 05:09:34;;;;;;;16.90;3.08;;;7.20;99.90;;;;;;4973100;28;20045;-76
2023/12/10 05:11:59;;;;;;;14.07;3.25;;;7.20;99.90;;;;;;4998691;28;20098;-76
2023/12/10 05:14:25;;;;;;;11.63;2.70;;;7.20;99.90;;;;;;5005705;28;20494;-76
2023/12/10 05:16:51;;;;;;;20.65;3.42;;;7.20;99.90;;;;;;5013941;28;20483;-76
2023/12/10 05:19:16;;;;;;;12.32;3.30;;;7.20;99.90;;;;;;4972851;28;20494;-77
2023/12/10 05:21:42;;;;;;;8.45;2.78;;;7.20;99.90;;;;;;4999750;28;20045;-77
2023/12/10 05:24:08;;;;;;;15.32;3.22;;;7.20;99.90;;;;;;5016098;28;20502;-77
2023/12/10 05:26:34;;;;;;;19.05;3.60;;;7.30;99.90;;;;;;5011841;28;20117;-76
2023/12/10 05:28:59;;;;;;;12.02;2.78;;;7.20;99.90;;;;;;4990311;28;20037;-77
2023/12/10 05:31:25;;;;;;;10.80;3.47;;;7.30;99.90;;;;;;5003678;28;20410;-77
2023/12/10 05:33:51;;;;;;;15.38;2.72;;;7.30;99.90;;;;;;4987896;28;20041;-76
2023/12/10 05:36:17;;;;;;;15.38;2.80;;;7.30;99.90;;;;;;5023744;28;20141;-77
2023/12/10 05:38:42;;;;;;;25.52;4.43;;;7.30;99.90;;;;;;4994912;28;20117;-76
2023/12/10 05:41:08;;;;;;;14.15;3.15;;;7.30;99.90;;;;;;4984091;28;20033;-77
2023/12/10 05:43:34;;;;;;;13.77;2.88;;;7.30;99.90;;;;;;5000213;28;20509;-76
2023/12/10 05:45:59;;;;;;;13.13;3.10;;;7.30;99.90;;;;;;4968610;28;20037;-77
2023/12/10 05:48:27;;;;;;;10.02;2.83;;;7.30;99.90;;;;;;5021643;28;20091;-77
2023/12/10 05:50:53;;;;;;;15.07;3.70;;;7.40;99.90;;;;;;5008501;28;20045;-76
2023/12/10 05:53:19;;;;;;;16.10;3.88;;;7.40;99.90;;;;;;5001870;28;20597;-76
2023/12/10 05:55:45;;;;;;;7.70;3.00;;;7.30;99.90;;;;;;4984674;28;20499;-76
2023/12/10 05:58:11;;;;;;;8.75;2.40;;;7.40;99.90;;;;;;5002850;28;20038;-76
2023/12/10 06:00:37;;;;;;;11.57;2.70;;;7.40;99.90;;;;;;5023685;28;20044;-76
2023/12/10 06:03:02;;;;;;;10.27;2.88;;;7.40;99.90;;;;;;5006192;28;20046;-76
2023/12/10 06:05:28;;;;;;;9.65;2.42;;;7.40;99.90;;;;;;4991991;28;20048;-77
2023/12/10 06:07:54;;;;;;;7.88;2.58;;;7.50;99.90;;;;;;4998994;28;20045;-76
2023/12/10 06:10:20;;;;;;;7.53;2.65;;;7.50;99.90;;;;;;4968229;28;20044;-77
2023/12/10 06:12:46;;;;;;;6.70;2.63;;;7.50;99.90;;;;;;5003080;28;20092;-77
2023/12/10 06:15:12;;;;;;;11.77;3.47;;;7.60;99.90;;;;;;4993973;28;20529;-76
2023/12/10 06:17:38;;;;;;;8.13;2.63;;;7.50;99.90;;;;;;4987744;28;20041;-76
2023/12/10 06:20:05;;;;;;;12.43;3.30;;;7.60;99.90;;;;;;4993973;28;20479;-76
2023/12/10 06:22:30;;;;;;;11.63;2.55;;;7.50;99.90;;;;;;4990280;28;20084;-77
2023/12/10 06:24:56;;;;;;;12.27;2.45;;;7.60;99.90;;;;;;5014076;28;20088;-77
2023/12/10 06:27:22;;;;;;;19.13;3.78;;;7.60;99.90;;;;;;4984802;28;20046;-76
2023/12/10 06:29:47;;;;;;;8.70;2.38;;;7.60;99.90;;;;;;5004259;28;20056;-76
2023/12/10 06:32:13;;;;;;;13.63;2.67;;;7.60;99.90;;;;;;4986309;28;20431;-77
2023/12/10 06:34:39;;;;;;;13.23;2.88;;;7.60;99.90;;;;;;5007169;28;20116;-77
2023/12/10 06:37:04;;;;;;;7.10;1.85;;;7.60;99.90;;;;;;4993820;28;20495;-77
2023/12/10 06:39:30;;;;;;;7.80;2.45;;;7.70;99.90;;;;;;4987261;28;20083;-77
2023/12/10 06:41:56;;;;;;;11.23;2.80;;;7.70;99.90;;;;;;5027134;28;20498;-77
2023/12/10 06:44:22;;;;;;;15.10;2.40;;;7.60;99.90;;;;;;4990410;28;20030;-76
2023/12/10 06:46:48;;;;;;;9.38;2.38;;;7.70;99.90;;;;;;5006429;28;20033;-77
2023/12/10 06:49:14;;;;;;;13.18;3.42;;;7.70;99.90;;;;;;5010030;28;20033;-76
2023/12/10 06:51:40;;;;;;;9.27;2.67;;;7.70;99.90;;;;;;4994631;28;20062;-76
2023/12/10 06:54:06;;;;;;;8.63;2.30;;;8.50;99.90;;;;;;4969961;28;20041;-76
2023/12/10 06:56:38;;;;;;;20.25;4.43;;;7.70;99.90;;;;;;4997014;28;20064;-76
2023/12/10 06:59:04;;;;;;;14.20;2.75;;;7.70;99.90;;;;;;4992418;28;20040;-77
2023/12/10 07:01:29;;;;;;;13.65;3.35;;;7.70;99.90;;;;;;5023559;28;20113;-77
2023/12/10 07:03:55;;;;;;;16.30;3.13;;;7.70;99.90;;;;;;4995925;28;20092;-76
2023/12/10 07:06:21;;;;;;;14.27;3.08;;;7.70;99.90;;;;;;5007751;28;20045;-76
2023/12/10 07:08:46;;;;;;;5.38;2.30;;;7.70;99.90;;;;;;5025933;28;20049;-76
2023/12/10 07:11:12;;;;;;;19.05;3.78;;;7.70;99.90;;;;;;5004449;28;20120;-76
2023/12/10 07:13:38;;;;;;;16.45;3.28;;;7.70;99.90;;;;;;5014571;28;20112;-76
2023/12/10 07:16:04;;;;;;;16.10;2.83;;;7.70;99.90;;;;;;5003156;28;20029;-76
2023/12/10 07:18:30;;;;;;;13.35;3.05;;;7.70;99.90;;;;;;4983986;28;20482;-77
2023/12/10 07:20:55;;;;;;;16.95;3.15;;;7.70;99.90;;;;;;5000333;28;20088;-77
2023/12/10 07:23:21;;;;;;;15.32;2.25;;;7.70;99.90;;;;;;4989158;28;20042;-76
2023/12/10 07:25:47;;;;;;;17.02;3.10;;;7.70;99.90;;;;;;4979881;28;20037;-76
2023/12/10 07:28:12;;;;;;;7.35;2.15;;;7.70;99.90;;;;;;4999773;28;20130;-76
2023/12/10 07:30:39;;;;;;;9.63;3.28;;;7.70;99.90;;;;;;4994175;28;20169;-76
2023/12/10 07:33:04;;;;;;;14.52;2.65;;;7.70;99.90;;;;;;4994493;28;20058;-76
2023/12/10 07:35:30;;;;;;;11.77;3.47;;;7.70;99.90;;;;;;4984385;28;20037;-76
2023/12/10 07:37:56;;;;;;;13.98;3.08;;;7.70;99.90;;;;;;5003638;28;20057;-76
2023/12/10 07:40:22;;;;;;;13.65;2.97;;;7.70;99.90;;;;;;5007672;28;20065;-76
2023/12/10 07:42:47;;;;;;;20.77;3.33;;;7.60;99.90;;;;;;4997371;28;20041;-76
2023/12/10 07:45:13;;;;;;;13.93;3.25;;;7.70;99.90;;;;;;5009154;28;20052;-75
2023/12/10 07:47:39;;;;;;;6.07;1.92;;;7.70;99.90;;;;;;5018366;28;20044;-76
2023/12/10 07:50:05;;;;;;;15.90;2.38;;;7.70;99.90;;;;;;5017203;28;20042;-76
2023/12/10 07:52:31;;;;;;;9.35;2.20;;;7.70;99.90;;;;;;4996939;28;20084;-76
2023/12/10 07:54:56;;;;;;;7.85;2.10;;;7.70;99.90;;;;;;4997695;28;20096;-77
2023/12/10 07:57:22;;;;;;;9.32;2.15;;;7.70;99.90;;;;;;5021776;28;20570;-76
2023/12/10 07:59:48;;;;;;;15.35;2.30;;;7.70;99.90;;;;;;4981719;28;20450;-76
2023/12/10 08:02:14;;;;;;;7.32;2.42;;;7.60;99.90;;;;;;5021826;28;20037;-76
2023/12/10 08:04:39;;;;;;;16.85;5.13;;;7.70;99.90;;;;;;4993409;28;20033;-76
2023/12/10 08:07:05;;;;;;;20.30;3.78;;;7.70;99.90;;;;;;4965888;28;20499;-76
2023/12/10 08:09:31;;;;;;;9.48;2.72;;;7.70;99.90;;;;;;5000644;28;20046;-76
2023/12/10 08:11:56;;;;;;;12.48;2.85;;;7.70;99.90;;;;;;5018614;28;20092;-77
2023/12/10 08:14:25;;;;;;;19.63;5.47;;;7.70;99.90;;;;;;5005020;28;20122;-76
2023/12/10 08:16:51;;;;;;;14.95;3.35;;;7.60;99.90;;;;;;5013149;28;20577;-76
2023/12/10 08:19:17;;;;;;;17.73;3.40;;;7.60;99.90;;;;;;5007990;28;20065;-76
2023/12/10 08:21:43;;;;;;;16.42;2.97;;;7.60;99.90;;;;;;4986435;28;20069;-76
2023/12/10 08:24:09;;;;;;;18.90;5.15;;;7.60;99.90;;;;;;5003112;28;20103;-76
2023/12/10 08:26:35;;;;;;;11.68;2.70;;;7.60;99.90;;;;;;5009623;28;20038;-77
2023/12/10 08:29:01;;;;;;;12.63;2.90;;;7.60;99.90;;;;;;5004927;28;20041;-76
2023/12/10 08:31:27;;;;;;;11.70;2.83;;;7.60;99.90;;;;;;5019147;28;20038;-76
2023/12/10 08:33:53;;;;;;;9.95;3.35;;;7.60;99.90;;;;;;5015313;28;20042;-77
2023/12/10 08:36:18;;;;;;;13.65;3.05;;;7.60;99.90;;;;;;5005367;28;20037;-76
2023/12/10 08:38:44;;;;;;;16.17;2.85;;;7.60;99.90;;;;;;5018694;28;20041;-76
2023/12/10 08:41:10;;;;;;;14.40;2.65;;;7.60;99.90;;;;;;4990972;28;20037;-76
2023/12/10 08:43:37;;;;;;;11.43;2.97;;;7.60;99.90;;;;;;5010913;28;20120;-76
2023/12/10 08:46:03;;;;;;;16.30;2.97;;;7.60;99.90;;;;;;5010525;28;20048;-76
2023/12/10 08:48:30;;;;;;;15.77;3.22;;;7.60;99.90;;;;;;5024516;28;20095;-76
2023/12/10 08:50:56;;;;;;;14.95;2.80;;;7.60;99.90;;;;;;5005770;28;20532;-76
2023/12/10 08:53:22;;;;;;;15.65;2.95;;;7.60;99.90;;;;;;5024864;28;20065;-79
2023/12/10 08:55:48;;;;;;;20.63;3.97;;;7.60;99.90;;;;;;4982665;28;20041;-78
2023/12/10 08:58:15;;;;;;;11.90;3.00;;;7.60;99.90;;;;;;5016330;28;20044;-79
2023/12/10 09:00:41;;;;;;;25.35;4.53;;;7.60;99.90;;;;;;5000925;28;20048;-77
2023/12/10 09:03:07;;;;;;;11.75;2.95;;;7.60;99.90;;;;;;5002175;28;20029;-78
2023/12/10 09:05:32;;;;;;;23.60;4.00;;;7.60;99.90;;;;;;5000319;28;20037;-79
2023/12/10 09:07:59;;;;;;;28.85;6.80;;;7.60;99.90;;;;;;5001325;28;20522;-79
2023/12/10 09:10:24;;;;;;;23.08;4.20;;;7.60;99.90;;;;;;5002050;28;20045;-83
2023/12/10 09:12:50;;;;;;;24.75;4.70;;;7.60;99.90;;;;;;5018014;28;20052;-78
2023/12/10 09:15:16;;;;;;;14.98;3.42;;;7.60;99.90;;;;;;5002509;28;20056;-77
2023/12/10 09:17:41;;;;;;;16.20;3.45;;;7.70;99.90;;;;;;4978786;28;20046;-78
2023/12/10 09:20:08;;;;;;;17.67;3.17;;;7.70;99.90;;;;;;4988820;28;20038;-78
2023/12/10 09:22:33;;;;;;;13.90;3.03;;;7.70;99.90;;;;;;5011994;28;20037;-78
2023/12/10 09:24:59;;;;;;;14.23;3.20;;;7.70;99.90;;;;;;5000506;28;20578;-79
2023/12/10 09:27:25;;;;;;;27.02;3.80;;;7.70;99.90;;;;;;4998170;28;20041;-78
2023/12/10 09:29:51;;;;;;;12.50;3.25;;;7.70;99.90;;;;;;4996562;28;20477;-78
2023/12/10 09:32:20;;;;;;;26.42;5.07;;;7.70;99.90;;;;;;5028587;28;20041;-78
2023/12/10 09:34:46;;;;;;;26.17;5.35;;;7.70;99.90;;;;;;4992744;28;20506;-80
2023/12/10 09:37:14;;;;;;;18.05;3.75;;;7.70;99.90;;;;;;5015382;28;20081;-79
2023/12/10 09:39:40;;;;;;;18.33;4.00;;;7.70;99.90;;;;;;5014655;28;20445;-79
2023/12/10 09:42:06;;;;;;;18.00;3.72;;;7.70;99.90;;;;;;4997969;28;20037;-79
2023/12/10 09:44:32;;;;;;;25.00;4.80;;;7.70;99.90;;;;;;5021846;28;20453;-79
2023/12/10 09:46:58;;;;;;;27.98;5.65;;;7.70;99.90;;;;;;5025085;28;20073;-79
2023/12/10 09:49:27;;;;;;;36.20;5.07;;;7.70;99.90;;;;;;4992402;28;20045;-79
2023/12/10 09:51:53;;;;;;;20.63;5.07;;;7.60;99.90;;;;;;5030018;28;20059;-79
2023/12/10 09:54:22;;;;;;;39.05;9.98;;;7.70;99.90;;;;;;5011075;28;20053;-78
2023/12/10 09:56:50;;;;;;;34.35;11.57;;;7.60;99.90;;;;;;4985756;28;20042;-79
2023/12/10 09:59:17;;;;;;;33.85;6.25;;;7.60;99.90;;;;;;4987373;28;20088;-79
2023/12/10 10:01:50;;;;;;;28.52;6.75;;;7.60;99.90;;;;;;5009820;28;20042;-80
2023/12/10 10:04:19;;;;;;;22.10;3.90;;;7.70;99.90;;;;;;5009384;28;20041;-81
2023/12/10 10:06:45;;;;;;;20.83;5.15;;;7.70;99.90;;;;;;5005837;28;20132;-80
2023/12/10 10:09:11;;;;;;;23.65;3.90;;;7.70;99.90;;;;;;5013159;28;20120;-82
2023/12/10 10:11:40;;;;;;;22.08;4.97;;;7.70;99.90;;;;;;5011803;28;20565;-81
2023/12/10 10:14:07;;;;;;;19.80;5.28;;;7.70;99.90;;;;;;4997139;28;20629;-81
2023/12/10 10:16:33;;;;;;;40.83;8.80;;;7.70;99.90;;;;;;4995439;28;20395;-81
2023/12/10 10:19:00;;;;;;;26.30;4.97;;;7.70;99.90;;;;;;5023744;28;20038;-83
2023/12/10 10:21:26;;;;;;;21.33;4.35;;;7.70;99.90;;;;;;4986991;28;20080;-79
2023/12/10 10:23:51;;;;;;;21.17;4.97;;;7.60;99.90;;;;;;5004813;28;20045;-79
2023/12/10 10:26:20;;;;;;;19.38;5.28;;;7.60;99.90;;;;;;4987494;28;20045;-80
2023/12/10 10:28:46;;;;;;;33.90;4.22;;;7.60;99.90;;;;;;5028021;28;20095;-81
2023/12/10 10:31:12;;;;;;;22.50;5.15;;;7.60;99.90;;;;;;5023888;28;20049;-82
2023/12/10 10:33:40;;;;;;;25.75;4.25;;;7.60;99.90;;;;;;4996673;28;20103;-75
2023/12/10 10:36:06;;;;;;;29.48;5.13;;;7.60;99.90;;;;;;5003840;28;20063;-74
2023/12/10 10:38:33;;;;;;;16.25;4.40;;;7.60;99.90;;;;;;5004500;28;20052;-75
2023/12/10 10:40:59;;;;;;;33.92;7.95;;;7.70;99.90;;;;;;5026529;28;20491;-75
2023/12/10 10:43:25;;;;;;;68.03;15.55;;;7.70;99.90;;;;;;5005495;28;20368;-75
2023/12/10 10:45:55;;;;;;;76.03;19.63;;;7.70;99.90;;;;;;5025311;28;20033;-75
2023/12/10 10:48:25;;;;;;;21.25;4.53;;;7.70;99.90;;;;;;5026420;28;20065;-75
2023/12/10 10:50:52;;;;;;;24.95;5.80;;;7.70;99.90;;;;;;5026981;28;20040;-75
2023/12/10 10:53:18;;;;;;;29.73;5.97;;;7.70;99.90;;;;;;4996170;28;20057;-74
2023/12/10 10:55:48;;;;;;;29.77;5.25;;;7.70;99.90;;;;;;5029336;28;20046;-75
2023/12/10 10:58:28;;;;;;;18.75;4.85;;;7.70;99.90;;;;;;5000750;28;20123;-75
2023/12/10 11:00:58;;;;;;;40.33;5.97;;;7.70;99.90;;;;;;5029407;28;20461;-75
2023/12/10 11:03:27;;;;;;;26.58;6.82;;;7.80;99.90;;;;;;5028132;28;20117;-75
2023/12/10 11:06:01;;;;;;;21.33;3.88;;;7.80;99.90;;;;;;5028700;28;20091;-75
2023/12/10 11:08:29;;;;;;;35.03;5.25;;;7.80;99.90;;;;;;5012791;28;20043;-75
2023/12/10 11:11:01;;;;;;;23.08;5.13;;;7.80;99.90;;;;;;5026280;28;20037;-75
2023/12/10 11:13:46;;;;;;;37.22;8.38;;;7.80;99.90;;;;;;5027535;28;20499;-75
2023/12/10 11:16:13;;;;;;;14.48;3.45;;;7.70;99.90;;;;;;5025529;28;20397;-75
2023/12/10 11:18:57;;;;;;;22.33;4.80;;;7.80;99.90;;;;;;5011866;28;20045;-75
2023/12/10 11:21:23;;;;;;;24.27;3.85;;;7.70;99.90;;;;;;5029073;28;20041;-75
2023/12/10 11:23:49;;;;;;;27.23;4.75;;;7.70;99.90;;;;;;5011719;28;20483;-75
2023/12/10 11:26:15;;;;;;;20.38;4.07;;;7.70;99.90;;;;;;4994801;28;20045;-75
2023/12/10 11:28:42;;;;;;;30.80;11.48;;;7.70;99.90;;;;;;5028977;28;20084;-75
2023/12/10 11:31:08;;;;;;;21.45;4.57;;;7.70;99.90;;;;;;5010713;28;20044;-75
2023/12/10 11:33:38;;;;;;;10.10;3.65;;;7.70;99.90;;;;;;5012203;28;20128;-75
2023/12/10 11:36:05;;;;;;;23.00;6.28;;;7.80;99.90;;;;;;5012155;28;20187;-75
2023/12/10 11:38:31;;;;;;;20.88;4.60;;;7.80;99.90;;;;;;4996950;28;20033;-75
2023/12/10 11:40:57;;;;;;;15.73;4.75;;;7.90;99.90;;;;;;4999370;28;20038;-74
2023/12/10 11:43:23;;;;;;;17.48;4.20;;;7.90;99.90;;;;;;4997844;28;20048;-74
2023/12/10 11:45:51;;;;;;;29.50;4.18;;;7.90;99.90;;;;;;4996100;28;20034;-75
2023/12/10 11:48:18;;;;;;;36.72;8.48;;;7.90;99.90;;;;;;5000007;28;20038;-75
2023/12/10 11:50:46;;;;;;;23.40;4.82;;;8.00;99.90;;;;;;5003999;28;20563;-75
2023/12/10 11:53:14;;;;;;;24.33;3.88;;;8.00;99.90;;;;;;5031932;28;20056;-75
2023/12/10 11:55:41;;;;;;;26.58;4.82;;;8.00;99.90;;;;;;5015945;28;20041;-75
2023/12/10 11:58:08;;;;;;;25.38;4.65;;;8.00;99.90;;;;;;5013233;28;20034;-74
2023/12/10 12:00:34;;;;;;;21.77;4.68;;;8.00;99.90;;;;;;5013395;28;20033;-75
2023/12/10 12:03:04;;;;;;;27.27;4.10;;;8.00;99.90;;;;;;5015524;28;20033;-75
2023/12/10 12:05:30;;;;;;;27.35;4.63;;;8.00;99.90;;;;;;5033263;28;20049;-75
2023/12/10 12:07:55;;;;;;;32.30;7.18;;;8.00;99.90;;;;;;5033728;28;20051;-75
2023/12/10 12:10:21;;;;;;;21.58;4.05;;;8.00;99.90;;;;;;5016852;28;20045;-75
2023/12/10 12:12:48;;;;;;;16.17;3.60;;;8.10;99.90;;;;;;4998398;28;20147;-75
2023/12/10 12:15:15;;;;;;;20.60;5.20;;;8.00;99.90;;;;;;5007241;28;20038;-75
2023/12/10 12:17:42;;;;;;;31.83;5.05;;;8.00;99.90;;;;;;5025312;28;20044;-75
2023/12/10 12:20:17;;;;;;;31.65;7.25;;;8.00;99.90;;;;;;5019769;28;20117;-75
2023/12/10 12:22:44;;;;;;;35.75;12.18;;;8.00;99.90;;;;;;5030954;28;20037;-75
2023/12/10 12:25:09;;;;;;;30.25;4.32;;;8.00;99.90;;;;;;5029459;28;20049;-75
2023/12/10 12:27:35;;;;;;;37.55;8.52;;;7.90;99.90;;;;;;5005289;28;20045;-75
2023/12/10 12:30:01;;;;;;;19.33;4.15;;;7.90;99.90;;;;;;4990613;28;20100;-76
2023/12/10 12:32:27;;;;;;;18.27;3.70;;;7.90;99.90;;;;;;5031650;28;20048;-75
2023/12/10 12:34:52;;;;;;;24.77;6.68;;;7.90;99.90;;;;;;4999100;28;20073;-75
2023/12/10 12:37:18;;;;;;;24.35;4.63;;;7.90;99.90;;;;;;4999071;28;20034;-75
2023/12/10 12:39:44;;;;;;;22.83;4.50;;;7.90;99.90;;;;;;5012522;28;20033;-75
2023/12/10 12:42:09;;;;;;;23.08;4.45;;;7.90;99.90;;;;;;5031501;28;20124;-75
2023/12/10 12:44:35;;;;;;;25.70;5.03;;;8.00;99.90;;;;;;5000629;28;20040;-76